Spen 20 External Results
Liversedge
11 Mar 18
Head to Head - to compare runners check 2 or more boxes below and then click
 
20M
PosGun   Name AG ClubSBPBHC  
11:53:35   Scott Harrington SBV35MOtley1:53:351:52:02-2.1 
21:54:58   Lewis Gamble-Thompson PBSENMNew Marske1:54:581:54:58-2.4 
32:00:05   Ed Hyland PBSENMStainland2:00:052:00:050.4 
42:01:08   Neal Emmerson PBV35MRadcliffe2:01:082:01:08-1.0Click your Clock logo
52:02:28   Phil Elliott PBV40MKnavesmire2:02:282:02:284.1 
62:04:55   Will Kerr SBV40MSaltaire Striders/Bradford Airedale2:04:552:04:120.3 
72:05:38   Simon Spears PBV35MAckworth2:05:382:05:382.5 
82:06:16   Tom Thomas PBSENMHyde Park Harriers2:06:162:06:160.3 
92:07:26   Andrew Bennett PBV35MValley Striders2:07:262:06:153.3 
102:07:48   Chris Ward SBSENMWakefield2:07:482:04:132.1 
112:08:28   Jonathan Cleaver PBV35MClayton le Moors2:08:282:08:28-1.0 
122:08:49   Ian Richardson PBV35MWakefield2:08:492:08:491.9Click your Clock logo
132:09:07   Tom Jagger PBV35MStadium Runners2:09:072:06:461.0 
142:09:52   Simon Lambert SBV35MUnattached2:09:522:06:050.7Click your Clock logo
152:10:11   Stuart Tucker PBV40MSwinton2:10:112:10:112.3Click your Clock logo
162:10:33   Matthew Pinnock PBSENMPudsey Pacers2:10:332:10:331.8Click your Clock logo
172:10:56   Andrew Hebden SENMMorpeth    
182:11:15   Richard Stevenson PBV40MClayton le Moors/Unattached2:11:152:11:151.5 
192:12:39   Fiona Davies PBV40WRotherham2:12:392:12:393.0 
202:12:51   Edward Revell PBV40MSpenborough2:12:512:12:514.9 
212:13:21   Daniel Bird SBSENMSwinton2:13:212:00:464.2 
222:13:25   Tony Flanagan SBV50MSwinton2:13:252:05:572.9 
232:13:53   Ian Maudsley PBV35MSt. Theresa's2:13:532:13:532.4 
242:14:08   Glenton Johnson SBV40MSt. Theresa's2:14:082:13:145.8 
252:14:59   Matthew Nowell PBV35MSaltaire Striders/Bradford Airedale2:14:592:14:591.0 
262:15:40   Jon Pinder SBV35MKnavesmire2:15:402:12:432.0 
272:15:55   Michael Smith SENMPocklington    
282:15:59   Kevin Ryan SBV40MSwinton2:15:592:13:574.2 
292:16:02   Neal Edmondsen SENMHorsforth    
302:16:42   Ian Cronshaw PBSENMSwinton2:16:422:16:424.1 
312:18:21   Chris Jefferies PBV45MBillingham2:18:212:18:214.0 
322:19:12   David Blow V50M     
332:19:20   Zanthe Wray PBSENWHallamshire/Sheffield Uni2:19:202:19:203.1 
342:20:33   Richard Hirst PBV35MSpenborough2:20:332:20:336.8 
352:21:07   Kevin Lister  V45MNorth East Vets2:19:202:12:278.5 
362:21:20   Simon Brady PBV50MQueensbury2:21:202:21:205.2 
372:21:27   Ian Willis PBV45MKeighley & Craven2:21:272:21:271.9 
382:21:34   Mathew Richardson SENM     
392:22:04   Jonathan Young PBSENMKirkstall2:22:042:22:040.0 
402:22:10   Carl Heron PBV55MQueensbury2:22:102:22:104.9 
412:22:20   Karl Field SENM     
422:22:24   Jason Higgins  SENMKnavesmire2:16:342:16:343.5 
432:22:29   Caroline Hoath PBV40WMeltham2:22:292:22:298.0 
442:22:45   Terry Midgley SBV45MValley Striders2:22:452:13:454.3 
452:22:59   Chris Jones PBV50MWharfedale2:22:592:22:596.9 
462:23:39   Rebecca Winter SBSENWAckworth2:23:392:15:562.5Click your Clock logo
472:23:55   Lindsey Clegg PBV35WHorsforth Harriers2:23:552:23:556.1 
482:24:56   Andrew Davies SBV35MBillingham2:24:562:12:334.7 
492:25:11   Jenni Muston SBV40WSpenborough2:25:112:15:505.0 
502:25:17   Ryan Barker SBV45MHalifax2:25:172:02:104.3 
512:25:28   Daniel Plant SBV35MClayton le Moors2:25:282:19:317.4 
522:26:02   Paul Foster V55M     
532:26:29   Andrew Byram PBV40MDewsbury2:26:292:26:296.5 
542:27:02   Gerard Skippins SBV40MSpenborough2:27:022:24:015.2 
552:27:08   Sam Blashard SENMCalder Valley    
562:27:16   Tristan Featherby PBSENMPocklington2:27:162:18:424.1Click your Clock logo
572:27:54   Vincent Jensen PBV35MNorthwich2:27:542:27:548.5 
582:28:24   Neil Thompson SBV40MFitmums & Friends2:28:242:17:498.9 
592:28:35   Steve Tether  V45MUnattached2:25:092:17:354.7 
602:29:10   Craig Thompson PBSENMRoberttown2:29:102:29:106.1 
612:29:12   Shamiso Sisimayi  V35WHarrogate/Zimbabwe2:23:512:22:196.8 
622:29:33   Joe Baker  V35MStadium Runners2:23:572:17:533.6 
632:29:40   Ian Ogden SBV45MSpenborough/Saltaire Striders2:29:402:22:064.9 
642:29:56   Adam Moger PBV40MKirkstall/Leeds & Bradford TC2:29:562:29:564.1 
652:31:05   Ewan Cochrane PBV35MKnavesmire2:31:052:31:056.1 
662:31:16   Richard Kennedy-Joyce SBSENMKirkstall2:31:162:14:1312.2 
672:31:34   Mark Yates SBV45MKingstone2:31:342:25:0410.1 
682:31:48   Amy Young SBSENWHyde Park Harriers2:31:482:23:224.3 
692:32:32   Tara Spillings SBSENWUnattached2:32:322:22:077.8 
702:33:32   Adrian Sell PBV35MSaddleworth/Wootton RR2:33:322:33:326.0 
712:33:58   Richard Aiston PBV55MDewsbury2:33:582:33:5812.9 
722:34:15   Sian Elizabeth Evans  SENWSteel City2:21:162:17:563.8 
732:34:34   Jon Wilson SBV40MCity of Hull2:34:342:25:004.7Click your Clock logo
742:34:51   Megan Button PBSENWBarnsley AC/Penistone2:34:512:34:5113.9 
752:34:52   Oliver Pike SBV35MPenistone2:34:522:22:205.4 
762:34:53   Nicholas Tutill PBV40MKnavesmire2:34:532:34:5314.4 
772:35:51   Julie Masterman SBV50WGoole Viking Striders2:35:512:21:476.4 
782:37:19   David Ingle PBV55MHalifax2:37:192:37:195.9 
792:37:42   Dave Butler PBV45MSpenborough2:37:422:37:428.9 
802:38:15   Hayley Nancolas PBV35WValley Striders2:38:152:38:159.6 
812:38:24   Andrew Wiggins SBV45MHalifax/Stainland2:38:242:17:543.9 
822:39:01   Richard Harrison SBV45MSelby2:39:012:26:064.8Click your Clock logo
832:39:13   Vincent Baker PBSENMSteel City2:39:132:39:139.5 
842:39:15   Stuart Whale PBV45MAckworth2:39:152:39:156.2 
852:39:16   Simon Edwards-Barber PBSENMAckworth2:39:162:39:164.6 
862:40:19   Emer Dudley SBV55WRoberttown2:40:192:26:3811.4 
872:40:25   Sue Straw PBV45WKeighley & Craven2:40:252:40:259.8Click your Clock logo
882:41:00   Clare Rowntree SBSENWKnavesmire2:41:002:34:337.8 
892:41:12   Andrew Hilton V40M     
902:42:00   Nuno César de Sá PBV40MSkyrac2:42:002:42:007.3Click your Clock logo
912:42:00   Rebecca Cesar de Sa PBV40WSkyrac2:42:002:42:008.7 
922:42:12   Nicola Blyth PBV40WWhite City (Hull)2:42:122:42:1212.2Click your Clock logo
932:42:29   Rebecca Gray PBSENWHyde Park Harriers2:42:292:42:299.0 
942:43:19   Paul Grist  V50MKirkstall2:37:202:37:207.5 
952:43:32   Paul Dickens PBSENMHyde Park Harriers2:43:322:43:3211.0 
962:44:00   Rowan Temple PBSENMKirkstall2:44:002:44:003.9 
972:44:23   Emma Warner SBV40WWetherby2:44:232:35:1211.9 
982:44:27   Paul Smith PBV50MDewsbury2:44:272:44:2712.1 
992:44:35   Ed Senior PBSENMRoberttown2:44:352:44:358.7 
1002:45:55   Mathew Radbourne V45M     
1012:46:39   Janine Fallon SBV40WBlackburn/Lancashire Constabulary2:46:392:33:2211.7 
1022:46:44   Idris Mansoor SBV40MDewsbury2:46:442:34:4015.8 
1032:46:48   Emily Turner PBSENWHorsforth Harriers2:46:482:46:4816.1 
1042:46:50   Ann Foster V45WWetherby    
1052:47:09   Rachel Ball V35WSunderland    
1062:47:14   Michael Tinker V45M     
1072:47:22   John Parry V50M     
1082:47:34   Sara Morrow PBV45WSelby2:47:342:47:3410.7 
1092:48:21   Beth Rendall PBU23WHyde Park Harriers2:48:212:48:2114.3 
1102:49:03   Matt Worsman SENM     
1112:49:58   Christopher Gill PBV70MSt. Theresa's2:49:582:49:5812.8 
1122:50:01   Clare Evans SBSENWHyde Park Harriers2:50:012:49:589.8Click your Clock logo
1132:50:56   Justin Birtwistle PBV40MClayton le Moors2:50:562:50:5612.8 
1142:51:28   Chris Pearson PBV45MMethley2:51:282:51:289.1 
1152:51:33   Flora Skidmore SBV55WDewsbury2:51:332:17:5710.3 
1162:51:42   Ellen Sharpe SENWHyde Park    
1172:51:44   Chris Wainman V40MHuddersfield    
1182:51:52   Ian Gahagan PBV60MNorthern Masters2:51:522:51:5213.0 
1192:51:54   Mark Doyle SBV35MFarsley Flyers2:51:542:43:1810.6 
1202:52:24   Lorne Mcneill SBV45MBaildon2:52:242:19:1614.0 
1212:52:41   Alan Schofield PBV55MBarnsley H2:52:412:52:4113.0 
1222:52:43   Claire Thompson PBV35WSpenborough2:52:432:42:1912.3 
1232:54:05   Sandy George SBV50WAckworth2:54:052:50:5312.5 
1242:54:24   Robert Greaves SBV45MPudsey Pacers2:54:242:44:199.0 
1252:54:29   Tony George V50M     
1262:55:19   Emma Dooley SBV40WNidd Valley2:55:192:53:2613.0 
1272:55:24   Emma Dunn PBV45WTadcaster2:55:242:55:2414.0 
1282:57:24   Isobel Webster PBSENWKirkstall2:57:242:57:2412.7 
1292:58:04   Jan Michl SENM     
1302:58:14   Emma David PBV40WNidd Valley2:58:142:58:1413.5 
1312:58:48   Richard Bell V50MWetherby    
1322:58:49   Wayne Avery PBV35MHorsforth Harriers2:58:492:58:4920.2 
1332:59:12   Jackie Russell PBV40WMethley2:59:122:59:1215.4 
1342:59:37   John Atkinson V45M     
1353:00:05   Mark Leadbeater SBV50MAckworth3:00:052:46:427.0 
1363:01:18   Tao Liu PBV40WSt. Theresa's3:01:183:01:1813.5 
1373:01:37   Louise Siddall PBV45WKimberworth3:01:373:01:3720.3 
1383:02:48   Leanne Alston PBSENWQueensbury3:02:483:02:4811.8 
1393:03:11   Steven Pilling  V50MDewsbury2:24:132:24:138.2 
1403:03:14   Amy Linley PBSENWDewsbury3:03:143:03:1413.7 
1413:05:12   Nicola Forwood PBSENWHyde Park Harriers3:05:123:05:1215.9Click your Clock logo
1423:05:38   Alister Robson SBV45MFetch Everyone3:05:382:43:2510.8Click your Clock logo
1433:06:07   Elizabeth Nairn SBSENWSelby3:06:072:28:178.0 
1443:06:37   Emma Kettlewell PBSENWNidd Valley3:06:373:06:3719.2 
1453:06:52   Paul Baker SBSENMSelby3:06:523:03:0119.4 
1463:07:50   Adam Rahnavard SENM     
1473:08:08   Richard Cooper SBV40MSt. Theresa's3:08:082:53:4113.4 
1483:09:05   Karen Bowman SBV40WUnattached3:09:052:54:4813.8 
1493:09:59   Julie Hepworth PBV40WQueensbury3:09:593:09:5914.7 
1503:10:14   Joanne Loftus SBV40WSt. Theresa's3:10:143:09:2814.2 
1513:10:59   Debbie Bland SBV60WEccleshill3:10:592:53:1015.9 
1523:11:34   Martin Wright V55MBfd Airedale    
1533:11:34   Mohanlal Mistry PBV55MSaltaire Striders3:11:343:11:3414.9 
1543:12:04   Steve Laffey V55M     
1553:12:08   Vicky Webb V45W     
1563:14:51   Adam Beesting  V35MFarsley Flyers2:50:342:50:3411.0 
1573:16:35   Gail Wrangles SBV45WAckworth3:16:352:53:5112.7 
1583:17:06   Lindi Day  V40WFitmums & Friends3:11:302:53:4018.2 
1593:23:35   Sohail Miran V45MBfd Airedale    
1603:24:52   Helen Fenton SBV50WSt. Theresa's3:24:523:22:3318.9 
1613:24:52   Shaun Loftus SBV50MSt. Theresa's3:24:523:16:5115.8 
1623:28:53   Tania Leung V35W     
1633:28:53   Dom Charkin PBV40MFarsley Flyers3:28:533:28:5311.2 
1643:29:20   Lee Shorrock SENM     
1653:29:29   Amie Gardner SBSENWAckworth3:29:293:12:3914.3 
1663:29:29   Sarah Rose PBV45WAckworth3:29:293:29:2915.9 
1673:30:33   John Flanaghan SENM     
1683:31:23   Anne Worrall PBV45WValley Striders3:31:233:31:2318.4 
1693:31:57   Jenny Mynett SBV35WAirecentre Pacers3:31:573:19:0622.7 
1703:33:12   Gareth Tucker SENM     
1713:36:42   Robin Coghlan V50M     
1723:41:12   Philip Robinson SBV50MQueensbury3:41:122:47:4031.9 
1733:54:37   Stephanie Ramskill V45W     
1743:54:37   Neil Stearne PBV50MMethley3:54:373:54:3715.7 
1753:54:37   Kevin Chippendale SBV60MAckworth/West Yorkshire Police3:54:373:10:1212.4 
1764:02:10   Sarah Pay PBV40WFitmums & Friends4:02:104:02:1029.5 
1774:02:10   Clare Rex PBV45WFitmums & Friends4:02:104:02:1025.4 
1784:06:30   Julie Wilkinson PBV35WBramley Breezers4:06:304:06:3022.5 
1794:06:30   Nicola Morter V35W     
1804:08:58   Kate Holliday V40W